Terminal Aerodrome Forecast
Issued by NWS

Home | Current Version | Previous Version | Text Only | Print | Product List | Glossary On
Versions: 1 2 3 4 5 6 7 8 9 10 11 12
000
FTUS42 TJSJ 231720
TAFISX
TAF
TISX 231720Z 2318/2418 10015G22KT P6SM VCSH SCT028 BKN050
     FM232200 09012KT P6SM FEW030 SCT080
     FM240500 08007KT P6SM VCSH SCT022 SCT050 SCT090
     FM241500 11014KT P6SM SCT025 BKN050 BKN100=

USA.gov is the U.S. government's official web portal to all federal, state and local government web resources and services.